sensor_id;sensor_type;location;lat;lon;timestamp;temperature;humidity
53643;DHT22;39546;45.534;12.048;2022-10-16T00:02:30;18.40;77.90
53643;DHT22;39546;45.534;12.048;2022-10-16T00:08:32;18.40;77.90
53643;DHT22;39546;45.534;12.048;2022-10-16T00:14:34;18.40;77.80
53643;DHT22;39546;45.534;12.048;2022-10-16T00:20:36;18.40;77.80
53643;DHT22;39546;45.534;12.048;2022-10-16T00:26:39;18.40;77.90
53643;DHT22;39546;45.534;12.048;2022-10-16T00:32:41;18.30;78.10
53643;DHT22;39546;45.534;12.048;2022-10-16T00:39:02;18.40;78.00
53643;DHT22;39546;45.534;12.048;2022-10-16T00:45:05;18.30;78.00
53643;DHT22;39546;45.534;12.048;2022-10-16T00:51:07;18.40;78.10
53643;DHT22;39546;45.534;12.048;2022-10-16T00:57:10;18.30;78.10
53643;DHT22;39546;45.534;12.048;2022-10-16T01:03:28;18.30;78.30
53643;DHT22;39546;45.534;12.048;2022-10-16T01:09:55;18.30;78.60
53643;DHT22;39546;45.534;12.048;2022-10-16T01:16:00;18.30;78.70
53643;DHT22;39546;45.534;12.048;2022-10-16T01:22:05;18.30;78.50
53643;DHT22;39546;45.534;12.048;2022-10-16T01:28:11;18.30;78.50
53643;DHT22;39546;45.534;12.048;2022-10-16T01:34:37;18.30;78.60
53643;DHT22;39546;45.534;12.048;2022-10-16T01:40:45;18.30;78.80
53643;DHT22;39546;45.534;12.048;2022-10-16T01:46:50;18.20;78.90
53643;DHT22;39546;45.534;12.048;2022-10-16T01:52:54;18.20;79.10
53643;DHT22;39546;45.534;12.048;2022-10-16T01:59:19;18.20;79.20
53643;DHT22;39546;45.534;12.048;2022-10-16T02:05:38;18.20;79.10
53643;DHT22;39546;45.534;12.048;2022-10-16T02:11:42;18.20;79.10
53643;DHT22;39546;45.534;12.048;2022-10-16T02:18:06;18.20;79.10
53643;DHT22;39546;45.534;12.048;2022-10-16T02:30:28;18.20;79.60
53643;DHT22;39546;45.534;12.048;2022-10-16T02:36:32;18.20;79.60
53643;DHT22;39546;45.534;12.048;2022-10-16T02:42:36;18.10;79.80
53643;DHT22;39546;45.534;12.048;2022-10-16T02:48:38;18.10;79.80
53643;DHT22;39546;45.534;12.048;2022-10-16T02:54:41;18.20;79.80
53643;DHT22;39546;45.534;12.048;2022-10-16T03:00:43;18.10;80.00
53643;DHT22;39546;45.534;12.048;2022-10-16T03:06:45;18.00;80.00
53643;DHT22;39546;45.534;12.048;2022-10-16T03:12:47;18.10;79.90
53643;DHT22;39546;45.534;12.048;2022-10-16T03:18:49;18.10;80.00
53643;DHT22;39546;45.534;12.048;2022-10-16T03:24:52;18.10;80.20
53643;DHT22;39546;45.534;12.048;2022-10-16T03:30:54;18.00;80.40
53643;DHT22;39546;45.534;12.048;2022-10-16T03:36:56;18.00;80.50
53643;DHT22;39546;45.534;12.048;2022-10-16T03:42:59;18.00;80.70
53643;DHT22;39546;45.534;12.048;2022-10-16T03:49:02;18.00;80.90
53643;DHT22;39546;45.534;12.048;2022-10-16T03:55:04;17.90;81.00
53643;DHT22;39546;45.534;12.048;2022-10-16T04:01:06;18.00;81.10
53643;DHT22;39546;45.534;12.048;2022-10-16T04:07:09;18.00;81.20
53643;DHT22;39546;45.534;12.048;2022-10-16T04:13:11;17.90;81.20
53643;DHT22;39546;45.534;12.048;2022-10-16T04:19:14;17.90;81.50
53643;DHT22;39546;45.534;12.048;2022-10-16T04:25:16;17.80;81.80
53643;DHT22;39546;45.534;12.048;2022-10-16T04:31:18;17.80;82.00
53643;DHT22;39546;45.534;12.048;2022-10-16T04:37:25;17.80;82.30
53643;DHT22;39546;45.534;12.048;2022-10-16T04:43:27;17.70;82.40
53643;DHT22;39546;45.534;12.048;2022-10-16T04:49:29;17.70;82.60
53643;DHT22;39546;45.534;12.048;2022-10-16T04:55:31;17.70;82.70
53643;DHT22;39546;45.534;12.048;2022-10-16T05:01:33;17.70;82.70
53643;DHT22;39546;45.534;12.048;2022-10-16T05:07:35;17.70;82.80
53643;DHT22;39546;45.534;12.048;2022-10-16T05:13:37;17.60;83.10
53643;DHT22;39546;45.534;12.048;2022-10-16T05:19:39;17.50;83.20
53643;DHT22;39546;45.534;12.048;2022-10-16T05:25:41;17.50;83.30
53643;DHT22;39546;45.534;12.048;2022-10-16T05:31:43;17.50;83.20
53643;DHT22;39546;45.534;12.048;2022-10-16T05:37:46;17.50;83.30
53643;DHT22;39546;45.534;12.048;2022-10-16T05:43:48;17.40;83.40
53643;DHT22;39546;45.534;12.048;2022-10-16T05:49:51;17.50;83.40
53643;DHT22;39546;45.534;12.048;2022-10-16T05:55:54;17.50;83.30
53643;DHT22;39546;45.534;12.048;2022-10-16T06:01:57;17.50;83.30
53643;DHT22;39546;45.534;12.048;2022-10-16T06:07:59;17.50;83.30
53643;DHT22;39546;45.534;12.048;2022-10-16T06:14:02;17.50;83.40
53643;DHT22;39546;45.534;12.048;2022-10-16T06:20:08;17.50;83.30
53643;DHT22;39546;45.534;12.048;2022-10-16T06:26:12;17.50;83.30
53643;DHT22;39546;45.534;12.048;2022-10-16T06:32:15;17.50;83.50
53643;DHT22;39546;45.534;12.048;2022-10-16T06:38:18;17.50;83.50
53643;DHT22;39546;45.534;12.048;2022-10-16T06:44:20;17.50;83.60
53643;DHT22;39546;45.534;12.048;2022-10-16T06:50:22;17.50;83.40
53643;DHT22;39546;45.534;12.048;2022-10-16T06:56:54;17.60;83.30
53643;DHT22;39546;45.534;12.048;2022-10-16T07:02:56;17.70;83.20
53643;DHT22;39546;45.534;12.048;2022-10-16T07:09:00;17.60;83.20
53643;DHT22;39546;45.534;12.048;2022-10-16T07:15:11;17.70;83.30
53643;DHT22;39546;45.534;12.048;2022-10-16T07:21:21;17.70;83.10
53643;DHT22;39546;45.534;12.048;2022-10-16T07:27:24;17.80;83.00
53643;DHT22;39546;45.534;12.048;2022-10-16T07:33:26;17.80;82.90
53643;DHT22;39546;45.534;12.048;2022-10-16T07:39:28;17.80;82.80
53643;DHT22;39546;45.534;12.048;2022-10-16T07:45:30;17.90;82.80
53643;DHT22;39546;45.534;12.048;2022-10-16T07:51:32;18.00;82.60
53643;DHT22;39546;45.534;12.048;2022-10-16T07:57:35;18.10;82.60
53643;DHT22;39546;45.534;12.048;2022-10-16T08:03:37;18.20;82.50
53643;DHT22;39546;45.534;12.048;2022-10-16T08:09:39;18.30;82.10
53643;DHT22;39546;45.534;12.048;2022-10-16T08:15:45;18.40;82.10
53643;DHT22;39546;45.534;12.048;2022-10-16T08:21:47;18.50;82.20
53643;DHT22;39546;45.534;12.048;2022-10-16T08:27:53;18.50;82.00
53643;DHT22;39546;45.534;12.048;2022-10-16T08:33:55;18.60;81.80
53643;DHT22;39546;45.534;12.048;2022-10-16T08:40:26;18.70;81.50
53643;DHT22;39546;45.534;12.048;2022-10-16T08:46:38;18.80;81.40
53643;DHT22;39546;45.534;12.048;2022-10-16T08:52:44;18.80;81.40
53643;DHT22;39546;45.534;12.048;2022-10-16T08:58:48;18.90;81.30
53643;DHT22;39546;45.534;12.048;2022-10-16T09:17:52;19.30;80.70
53643;DHT22;39546;45.534;12.048;2022-10-16T09:24:19;19.50;80.20
53643;DHT22;39546;45.534;12.048;2022-10-16T09:30:22;19.60;79.80
53643;DHT22;39546;45.534;12.048;2022-10-16T09:36:29;19.70;79.60
53643;DHT22;39546;45.534;12.048;2022-10-16T09:42:37;19.70;79.40
53643;DHT22;39546;45.534;12.048;2022-10-16T09:48:47;19.80;79.20
53643;DHT22;39546;45.534;12.048;2022-10-16T09:54:55;19.90;78.90
53643;DHT22;39546;45.534;12.048;2022-10-16T10:00:59;20.00;78.70
53643;DHT22;39546;45.534;12.048;2022-10-16T10:07:03;20.20;78.60
53643;DHT22;39546;45.534;12.048;2022-10-16T10:13:18;20.30;79.10
53643;DHT22;39546;45.534;12.048;2022-10-16T10:19:23;20.50;78.50
53643;DHT22;39546;45.534;12.048;2022-10-16T10:57:35;21.30;77.10
53643;DHT22;39546;45.534;12.048;2022-10-16T11:04:15;21.40;76.70
53643;DHT22;39546;45.534;12.048;2022-10-16T11:10:24;21.10;77.40
53643;DHT22;39546;45.534;12.048;2022-10-16T11:16:51;20.90;77.80
53643;DHT22;39546;45.534;12.048;2022-10-16T11:23:06;21.20;77.30
53643;DHT22;39546;45.534;12.048;2022-10-16T11:29:19;21.20;77.20
53643;DHT22;39546;45.534;12.048;2022-10-16T11:41:48;21.20;76.90
53643;DHT22;39546;45.534;12.048;2022-10-16T11:48:00;21.50;76.10
53643;DHT22;39546;45.534;12.048;2022-10-16T11:54:18;21.50;75.90
53643;DHT22;39546;45.534;12.048;2022-10-16T12:00:28;21.50;76.00
53643;DHT22;39546;45.534;12.048;2022-10-16T12:06:34;21.70;75.80
53643;DHT22;39546;45.534;12.048;2022-10-16T12:12:39;21.80;75.30
53643;DHT22;39546;45.534;12.048;2022-10-16T12:31:37;22.20;74.40
53643;DHT22;39546;45.534;12.048;2022-10-16T12:37:41;22.20;73.90
53643;DHT22;39546;45.534;12.048;2022-10-16T12:44:23;22.20;74.10
53643;DHT22;39546;45.534;12.048;2022-10-16T12:50:35;22.20;73.70
53643;DHT22;39546;45.534;12.048;2022-10-16T13:03:47;22.20;73.50
53643;DHT22;39546;45.534;12.048;2022-10-16T13:10:14;22.10;73.50
53643;DHT22;39546;45.534;12.048;2022-10-16T13:29:06;22.00;73.60
53643;DHT22;39546;45.534;12.048;2022-10-16T13:35:30;21.90;73.40
53643;DHT22;39546;45.534;12.048;2022-10-16T13:41:32;21.90;73.60
53643;DHT22;39546;45.534;12.048;2022-10-16T13:47:34;21.90;73.60
53643;DHT22;39546;45.534;12.048;2022-10-16T13:53:36;21.90;73.70
53643;DHT22;39546;45.534;12.048;2022-10-16T13:59:38;22.00;73.70
53643;DHT22;39546;45.534;12.048;2022-10-16T14:05:49;22.30;73.40
53643;DHT22;39546;45.534;12.048;2022-10-16T14:12:03;22.40;73.10
53643;DHT22;39546;45.534;12.048;2022-10-16T14:18:05;22.50;73.00
53643;DHT22;39546;45.534;12.048;2022-10-16T14:24:12;22.50;73.00
53643;DHT22;39546;45.534;12.048;2022-10-16T14:30:17;22.60;72.90
53643;DHT22;39546;45.534;12.048;2022-10-16T14:36:48;22.60;72.70
53643;DHT22;39546;45.534;12.048;2022-10-16T14:42:51;22.60;72.80
53643;DHT22;39546;45.534;12.048;2022-10-16T14:55:14;22.50;72.70
53643;DHT22;39546;45.534;12.048;2022-10-16T15:01:17;22.50;72.70
53643;DHT22;39546;45.534;12.048;2022-10-16T15:07:19;22.50;72.90
53643;DHT22;39546;45.534;12.048;2022-10-16T15:13:45;22.50;72.80
53643;DHT22;39546;45.534;12.048;2022-10-16T15:19:47;22.80;72.30
53643;DHT22;39546;45.534;12.048;2022-10-16T15:25:54;23.00;71.80
53643;DHT22;39546;45.534;12.048;2022-10-16T15:31:57;23.30;71.40
53643;DHT22;39546;45.534;12.048;2022-10-16T15:38:28;23.30;71.20
53643;DHT22;39546;45.534;12.048;2022-10-16T15:44:31;23.10;71.40
53643;DHT22;39546;45.534;12.048;2022-10-16T15:50:33;22.80;72.20
53643;DHT22;39546;45.534;12.048;2022-10-16T15:56:36;22.30;73.00
53643;DHT22;39546;45.534;12.048;2022-10-16T16:02:39;22.10;73.60
53643;DHT22;39546;45.534;12.048;2022-10-16T16:08:41;21.80;74.00
53643;DHT22;39546;45.534;12.048;2022-10-16T16:14:44;21.70;74.30
53643;DHT22;39546;45.534;12.048;2022-10-16T16:20:47;21.50;74.60
53643;DHT22;39546;45.534;12.048;2022-10-16T16:27:10;21.40;74.70
53643;DHT22;39546;45.534;12.048;2022-10-16T16:33:13;21.30;74.90
53643;DHT22;39546;45.534;12.048;2022-10-16T16:39:15;21.20;75.10
53643;DHT22;39546;45.534;12.048;2022-10-16T16:45:17;21.00;75.30
53643;DHT22;39546;45.534;12.048;2022-10-16T16:51:19;21.00;75.50
53643;DHT22;39546;45.534;12.048;2022-10-16T16:57:21;20.80;75.60
53643;DHT22;39546;45.534;12.048;2022-10-16T17:03:23;20.80;75.90
53643;DHT22;39546;45.534;12.048;2022-10-16T17:09:25;20.70;75.90
53643;DHT22;39546;45.534;12.048;2022-10-16T17:15:27;20.60;75.90
53643;DHT22;39546;45.534;12.048;2022-10-16T17:21:30;20.50;76.10
53643;DHT22;39546;45.534;12.048;2022-10-16T17:27:34;20.50;76.30
53643;DHT22;39546;45.534;12.048;2022-10-16T17:33:37;20.40;76.50
53643;DHT22;39546;45.534;12.048;2022-10-16T17:39:40;20.30;76.50
53643;DHT22;39546;45.534;12.048;2022-10-16T17:45:42;20.30;76.60
53643;DHT22;39546;45.534;12.048;2022-10-16T17:51:45;20.30;76.70
53643;DHT22;39546;45.534;12.048;2022-10-16T17:57:47;20.20;76.80
53643;DHT22;39546;45.534;12.048;2022-10-16T18:03:57;20.20;76.90
53643;DHT22;39546;45.534;12.048;2022-10-16T18:10:00;20.20;77.10
53643;DHT22;39546;45.534;12.048;2022-10-16T18:16:07;20.10;77.30
53643;DHT22;39546;45.534;12.048;2022-10-16T18:22:12;20.00;77.40
53643;DHT22;39546;45.534;12.048;2022-10-16T18:28:14;20.00;77.40
53643;DHT22;39546;45.534;12.048;2022-10-16T18:34:17;20.00;77.60
53643;DHT22;39546;45.534;12.048;2022-10-16T18:40:20;19.90;78.00
53643;DHT22;39546;45.534;12.048;2022-10-16T18:46:23;19.80;78.20
53643;DHT22;39546;45.534;12.048;2022-10-16T18:52:25;19.80;78.20
53643;DHT22;39546;45.534;12.048;2022-10-16T18:58:28;19.80;78.30
53643;DHT22;39546;45.534;12.048;2022-10-16T19:04:31;19.70;78.60
53643;DHT22;39546;45.534;12.048;2022-10-16T19:10:36;19.70;78.90
53643;DHT22;39546;45.534;12.048;2022-10-16T19:16:38;19.70;79.00
53643;DHT22;39546;45.534;12.048;2022-10-16T19:22:43;19.60;78.90
53643;DHT22;39546;45.534;12.048;2022-10-16T19:29:02;19.60;79.00
53643;DHT22;39546;45.534;12.048;2022-10-16T19:35:04;19.50;79.30
53643;DHT22;39546;45.534;12.048;2022-10-16T19:41:17;19.50;79.30
53643;DHT22;39546;45.534;12.048;2022-10-16T19:47:20;19.40;79.60
53643;DHT22;39546;45.534;12.048;2022-10-16T19:53:22;19.30;80.00
53643;DHT22;39546;45.534;12.048;2022-10-16T19:59:50;19.30;79.90
53643;DHT22;39546;45.534;12.048;2022-10-16T20:05:53;19.30;79.80
53643;DHT22;39546;45.534;12.048;2022-10-16T20:11:58;19.20;79.90
53643;DHT22;39546;45.534;12.048;2022-10-16T20:18:00;19.20;80.30
53643;DHT22;39546;45.534;12.048;2022-10-16T20:24:02;19.20;80.20
53643;DHT22;39546;45.534;12.048;2022-10-16T20:30:09;19.00;80.10
53643;DHT22;39546;45.534;12.048;2022-10-16T20:36:14;19.00;80.30
53643;DHT22;39546;45.534;12.048;2022-10-16T20:42:38;18.90;80.30
53643;DHT22;39546;45.534;12.048;2022-10-16T20:48:41;19.00;80.30
53643;DHT22;39546;45.534;12.048;2022-10-16T20:54:47;18.90;80.30
53643;DHT22;39546;45.534;12.048;2022-10-16T21:00:50;19.00;80.20
53643;DHT22;39546;45.534;12.048;2022-10-16T21:06:52;18.90;80.20
53643;DHT22;39546;45.534;12.048;2022-10-16T21:12:54;18.90;80.30
53643;DHT22;39546;45.534;12.048;2022-10-16T21:18:57;18.90;80.30
53643;DHT22;39546;45.534;12.048;2022-10-16T21:24:59;18.90;80.20
53643;DHT22;39546;45.534;12.048;2022-10-16T21:31:16;18.80;80.30
53643;DHT22;39546;45.534;12.048;2022-10-16T21:37:23;18.80;80.20
53643;DHT22;39546;45.534;12.048;2022-10-16T21:43:24;18.70;80.40
53643;DHT22;39546;45.534;12.048;2022-10-16T21:49:26;18.70;80.40
53643;DHT22;39546;45.534;12.048;2022-10-16T21:55:28;18.70;80.40
53643;DHT22;39546;45.534;12.048;2022-10-16T22:01:31;18.60;80.50
53643;DHT22;39546;45.534;12.048;2022-10-16T22:07:33;18.60;80.70
53643;DHT22;39546;45.534;12.048;2022-10-16T22:13:35;18.60;80.70
53643;DHT22;39546;45.534;12.048;2022-10-16T22:19:38;18.60;80.70
53643;DHT22;39546;45.534;12.048;2022-10-16T22:25:40;18.50;80.70
53643;DHT22;39546;45.534;12.048;2022-10-16T22:31:43;18.60;80.70
53643;DHT22;39546;45.534;12.048;2022-10-16T22:37:45;18.60;80.70
53643;DHT22;39546;45.534;12.048;2022-10-16T22:43:48;18.50;80.80
53643;DHT22;39546;45.534;12.048;2022-10-16T22:49:50;18.50;80.80
53643;DHT22;39546;45.534;12.048;2022-10-16T22:55:52;18.40;80.90
53643;DHT22;39546;45.534;12.048;2022-10-16T23:01:58;18.40;81.00
53643;DHT22;39546;45.534;12.048;2022-10-16T23:08:00;18.40;81.00
53643;DHT22;39546;45.534;12.048;2022-10-16T23:14:02;18.40;81.00
53643;DHT22;39546;45.534;12.048;2022-10-16T23:20:04;18.30;81.10
53643;DHT22;39546;45.534;12.048;2022-10-16T23:26:16;18.30;81.40
53643;DHT22;39546;45.534;12.048;2022-10-16T23:32:18;18.40;81.40
53643;DHT22;39546;45.534;12.048;2022-10-16T23:38:20;18.30;81.40
53643;DHT22;39546;45.534;12.048;2022-10-16T23:44:22;18.40;81.50
53643;DHT22;39546;45.534;12.048;2022-10-16T23:50:24;18.40;81.50
53643;DHT22;39546;45.534;12.048;2022-10-16T23:56:26;18.40;81.40
